Terminal Aerodrome Forecast
Issued by NWS Caribou, ME

Home | Current Version | Previous Version | Text Only | Print | Product List | Glossary On
Versions: 1 2 3 4 5 6 7 8 9 10 11 12 13 14 15 16 17 18 19
152
FTUS41 KCAR 011923 AAE
TAFBGR
TAF AMD
KBGR 011923Z 0119/0218 18012G20KT 1/4SM -RA FG VV002
      TEMPO 0119/0122 2SM -RA BR OVC004
     FM012200 18012G25KT 3SM -RA BR SCT004 OVC008
     FM020400 22005KT 1/4SM -DZ FG VV002
     FM021000 23009KT 1SM -RA BR BKN020
     FM021400 26013G20KT 6SM BR SCT020 BKN250=

USA.gov is the U.S. government's official web portal to all federal, state and local government web resources and services.